createdAt,value
2018-06-30T00:02:09.580Z,101508.57
2018-06-30T00:05:18.433Z,101503.59
2018-06-30T00:08:20.514Z,101504.01
2018-06-30T00:11:22.960Z,101495.29
2018-06-30T00:14:25.093Z,101498.89
2018-06-30T00:17:27.161Z,101495.94
2018-06-30T00:20:29.204Z,101497.89
2018-06-30T00:23:31.337Z,101499.65
2018-06-30T00:26:33.534Z,101498.70
2018-06-30T00:29:35.657Z,101501.54
2018-06-30T00:32:37.699Z,101502.15
2018-06-30T00:35:39.759Z,101499.68
2018-06-30T00:38:41.917Z,101506.45
2018-06-30T00:41:44.558Z,101498.29
2018-06-30T00:44:48.616Z,101509.35
2018-06-30T00:47:50.719Z,101500.13
2018-06-30T00:50:52.781Z,101500.98
2018-06-30T00:53:54.868Z,101495.47
2018-06-30T00:56:56.975Z,101495.78
2018-06-30T00:59:59.020Z,101498.33
2018-06-30T01:03:01.192Z,101500.46
2018-06-30T01:06:03.375Z,101502.90
2018-06-30T01:09:07.002Z,101508.00
2018-06-30T01:12:09.055Z,101507.96
2018-06-30T01:15:11.249Z,101506.17
2018-06-30T01:18:14.572Z,101500.50
2018-06-30T01:21:28.880Z,101505.12
2018-06-30T01:24:31.039Z,101504.18
2018-06-30T01:27:33.231Z,101507.07
2018-06-30T01:30:35.479Z,101502.94
2018-06-30T01:33:37.656Z,101501.76
2018-06-30T01:36:39.724Z,101500.05
2018-06-30T01:39:41.769Z,101500.40
2018-06-30T01:42:44.164Z,101503.85
2018-06-30T01:45:46.224Z,101511.77
2018-06-30T01:48:49.305Z,101516.38
2018-06-30T01:51:51.380Z,101516.57
2018-06-30T01:54:53.555Z,101516.33
2018-06-30T01:57:55.798Z,101520.18
2018-06-30T02:00:57.889Z,101520.47
2018-06-30T02:03:59.936Z,101519.56
2018-06-30T02:07:02.044Z,101510.80
2018-06-30T02:10:04.251Z,101510.69
2018-06-30T02:13:06.175Z,101516.06
2018-06-30T02:16:08.229Z,101513.01
2018-06-30T02:19:10.396Z,101511.26
2018-06-30T02:22:12.474Z,101508.49
2018-06-30T02:25:15.122Z,101507.61
2018-06-30T02:28:17.240Z,101506.01
2018-06-30T02:31:19.419Z,101503.99
2018-06-30T02:34:21.535Z,101501.85
2018-06-30T02:37:23.525Z,101503.95
2018-06-30T02:40:25.671Z,101502.76
2018-06-30T02:43:27.792Z,101506.05
2018-06-30T02:46:29.864Z,101511.37
2018-06-30T02:49:42.517Z,101508.81
2018-06-30T02:52:44.879Z,101513.60
2018-06-30T02:55:46.925Z,101512.16
2018-06-30T02:59:02.314Z,101515.43
2018-06-30T03:02:04.340Z,101519.65
2018-06-30T03:05:06.443Z,101520.17
2018-06-30T03:08:09.553Z,101525.64
2018-06-30T03:11:11.718Z,101529.31
2018-06-30T03:14:14.700Z,101538.02
2018-06-30T03:17:17.804Z,101531.95
2018-06-30T03:20:19.990Z,101542.66
2018-06-30T03:23:21.967Z,101541.00
2018-06-30T03:26:23.990Z,101538.59
2018-06-30T03:29:26.066Z,101533.89
2018-06-30T03:32:28.032Z,101531.89
2018-06-30T03:35:30.605Z,101531.52
2018-06-30T03:38:32.724Z,101535.59
2018-06-30T03:41:34.744Z,101533.82
2018-06-30T03:44:36.920Z,101540.36
2018-06-30T03:47:39.083Z,101545.12
2018-06-30T03:50:41.177Z,101549.42
2018-06-30T03:53:44.341Z,101548.16
2018-06-30T03:56:46.467Z,101538.73
2018-06-30T03:59:48.458Z,101543.22
2018-06-30T04:02:50.391Z,101538.54
2018-06-30T04:05:52.530Z,101541.96
2018-06-30T04:08:54.743Z,101542.21
2018-06-30T04:12:03.832Z,101538.86
2018-06-30T04:15:06.272Z,101538.67
2018-06-30T04:18:08.381Z,101538.63
2018-06-30T04:21:16.072Z,101542.29
2018-06-30T04:24:18.150Z,101537.41
2018-06-30T04:27:20.199Z,101540.75
2018-06-30T04:30:22.291Z,101540.38
2018-06-30T04:33:24.354Z,101543.20
2018-06-30T04:36:26.429Z,101536.32
2018-06-30T04:39:28.372Z,101541.16
2018-06-30T04:42:30.450Z,101541.12
2018-06-30T04:45:32.531Z,101544.32
2018-06-30T04:48:34.708Z,101549.40
2018-06-30T04:51:36.867Z,101555.34
2018-06-30T04:54:38.923Z,101552.30
2018-06-30T04:57:41.172Z,101553.76
2018-06-30T05:00:43.977Z,101556.43
2018-06-30T05:03:46.872Z,101551.48
2018-06-30T05:06:48.947Z,101547.36
2018-06-30T05:09:51.126Z,101549.64
2018-06-30T05:13:16.926Z,101552.29
2018-06-30T05:16:19.002Z,101553.17
2018-06-30T05:19:21.037Z,101557.34
2018-06-30T05:22:23.162Z,101556.87
2018-06-30T05:25:25.225Z,101558.72
2018-06-30T05:28:27.303Z,101551.79
2018-06-30T05:31:29.473Z,101557.01
2018-06-30T05:34:31.631Z,101549.58
2018-06-30T05:37:33.683Z,101551.38
2018-06-30T05:40:35.800Z,101555.74
2018-06-30T05:43:37.926Z,101554.95
2018-06-30T05:46:40.017Z,101562.02
2018-06-30T05:49:41.991Z,101560.81
2018-06-30T05:52:44.118Z,101559.12
2018-06-30T05:55:46.908Z,101556.00
2018-06-30T05:58:49.013Z,101558.10
2018-06-30T06:01:51.067Z,101554.87
2018-06-30T06:04:53.195Z,101554.79
2018-06-30T06:07:55.195Z,101555.58
2018-06-30T06:10:57.293Z,101555.68
2018-06-30T06:13:59.384Z,101558.56
2018-06-30T06:17:01.667Z,101562.08
2018-06-30T06:20:04.198Z,101563.05
2018-06-30T06:23:07.228Z,101561.41
2018-06-30T06:26:09.675Z,101567.28
2018-06-30T06:29:11.767Z,101562.89
2018-06-30T06:32:13.987Z,101571.05
2018-06-30T06:35:29.554Z,101573.66
2018-06-30T06:38:31.697Z,101570.99
2018-06-30T06:41:33.781Z,101561.90
2018-06-30T06:44:46.391Z,101563.25
2018-06-30T06:47:48.643Z,101565.32
2018-06-30T06:50:50.768Z,101566.91
2018-06-30T06:53:54.947Z,101569.26
2018-06-30T06:56:58.207Z,101562.66
2018-06-30T07:00:00.321Z,101559.07
2018-06-30T07:03:08.419Z,101563.04
2018-06-30T07:06:10.527Z,101559.83
2018-06-30T07:09:12.644Z,101555.48
2018-06-30T07:12:15.533Z,101559.07
2018-06-30T07:15:17.817Z,101558.10
2018-06-30T07:18:19.773Z,101554.72
2018-06-30T07:21:21.895Z,101554.70
2018-06-30T07:24:24.016Z,101555.78
2018-06-30T07:27:26.193Z,101557.66
2018-06-30T07:30:28.139Z,101550.98
2018-06-30T07:33:30.236Z,101552.46
2018-06-30T07:36:32.416Z,101552.74
2018-06-30T07:39:34.531Z,101543.36
2018-06-30T07:42:36.683Z,101552.88
2018-06-30T07:45:38.709Z,101541.58
2018-06-30T07:48:40.774Z,101543.80
2018-06-30T07:51:42.880Z,101540.01
2018-06-30T07:54:45.739Z,101543.97
2018-06-30T07:57:47.831Z,101541.83
2018-06-30T08:00:51.052Z,101532.45
2018-06-30T08:03:52.862Z,101533.24
2018-06-30T08:06:55.092Z,101534.93
2018-06-30T08:09:57.271Z,101536.61
2018-06-30T08:12:59.383Z,101537.34
2018-06-30T08:16:01.601Z,101528.47
2018-06-30T08:19:04.192Z,101528.50
2018-06-30T08:22:07.300Z,101531.77
2018-06-30T08:25:09.485Z,101529.95
2018-06-30T08:28:11.623Z,101524.00
2018-06-30T08:31:13.887Z,101530.18
2018-06-30T08:34:16.322Z,101524.17
2018-06-30T08:37:18.448Z,101526.37
2018-06-30T08:40:20.617Z,101526.99
2018-06-30T08:43:22.619Z,101514.54
2018-06-30T08:46:24.963Z,101515.81
2018-06-30T08:49:26.991Z,101515.76
2018-06-30T08:52:29.559Z,101519.93
2018-06-30T08:55:32.082Z,101526.50
2018-06-30T08:58:35.538Z,101520.82
2018-06-30T09:01:37.922Z,101516.76
2018-06-30T09:04:40.549Z,101519.71
2018-06-30T09:07:42.711Z,101528.78
2018-06-30T09:10:44.952Z,101526.95
2018-06-30T09:13:46.940Z,101524.09
2018-06-30T09:16:49.167Z,101518.16
2018-06-30T09:19:51.450Z,101520.75
2018-06-30T09:22:53.459Z,101513.99
2018-06-30T09:25:55.626Z,101514.26
2018-06-30T09:28:57.769Z,101507.80
2018-06-30T09:31:59.935Z,101510.61
2018-06-30T09:35:02.137Z,101506.63
2018-06-30T09:38:04.283Z,101506.32
2018-06-30T09:41:06.426Z,101500.56
2018-06-30T09:44:08.982Z,101501.38
2018-06-30T09:47:11.133Z,101505.50
2018-06-30T09:50:13.328Z,101498.32
2018-06-30T09:53:15.600Z,101499.73
2018-06-30T09:56:21.381Z,101498.54
2018-06-30T09:59:23.843Z,101487.49
2018-06-30T10:02:25.925Z,101489.80
2018-06-30T10:05:28.277Z,101488.67
2018-06-30T10:08:30.371Z,101486.21
2018-06-30T10:11:36.303Z,101487.84
2018-06-30T10:14:38.429Z,101479.65
2018-06-30T10:17:41.951Z,101476.19
2018-06-30T10:20:44.525Z,101482.57
2018-06-30T10:23:47.070Z,101475.36
2018-06-30T10:26:50.844Z,101469.01
2018-06-30T10:29:53.056Z,101476.13
2018-06-30T10:32:55.037Z,101472.30
2018-06-30T10:35:58.537Z,101469.96
2018-06-30T10:39:02.116Z,101468.51
2018-06-30T10:42:05.009Z,101461.31
2018-06-30T10:45:08.155Z,101462.65
2018-06-30T10:48:10.728Z,101462.09
2018-06-30T10:51:13.193Z,101458.20
2018-06-30T10:54:15.721Z,101449.66
2018-06-30T10:57:18.242Z,101447.99
2018-06-30T11:00:21.789Z,101443.79
2018-06-30T11:03:24.227Z,101440.22
2018-06-30T11:06:26.276Z,101438.08
2018-06-30T11:09:28.815Z,101435.29
2018-06-30T11:12:31.322Z,101430.81
2018-06-30T11:15:33.859Z,101428.83
2018-06-30T11:18:37.331Z,101423.36
2018-06-30T11:21:39.830Z,101431.70
2018-06-30T11:24:41.908Z,101419.05
2018-06-30T11:27:44.427Z,101423.23
2018-06-30T11:30:46.839Z,101417.92
2018-06-30T11:33:48.894Z,101416.70
2018-06-30T11:36:51.558Z,101409.81
2018-06-30T11:39:53.971Z,101411.13
2018-06-30T11:42:55.987Z,101412.33
2018-06-30T11:45:58.528Z,101413.37
2018-06-30T11:49:00.989Z,101408.88
2018-06-30T11:52:03.578Z,101401.64
2018-06-30T11:55:06.055Z,101401.49
2018-06-30T11:58:08.571Z,101400.00
2018-06-30T12:01:10.731Z,101403.45
2018-06-30T12:04:12.785Z,101400.87
2018-06-30T12:07:15.959Z,101399.58
2018-06-30T12:10:18.210Z,101395.11
2018-06-30T12:13:20.324Z,101389.00
2018-06-30T12:16:23.457Z,101388.75
2018-06-30T12:19:25.588Z,101390.89
2018-06-30T12:22:27.621Z,101390.68
2018-06-30T12:25:30.016Z,101386.68
2018-06-30T12:28:32.095Z,101378.48
2018-06-30T12:31:34.236Z,101372.68
2018-06-30T12:34:36.484Z,101372.60
2018-06-30T12:37:38.564Z,101371.37
2018-06-30T12:40:40.930Z,101363.48
2018-06-30T12:43:43.805Z,101360.77
2018-06-30T12:46:46.808Z,101358.51
2018-06-30T12:49:48.781Z,101363.42
2018-06-30T12:52:50.912Z,101364.72
2018-06-30T12:55:52.921Z,101354.59
2018-06-30T12:58:55.207Z,101358.06
2018-06-30T13:01:57.326Z,101353.23
2018-06-30T13:04:59.482Z,101348.24
2018-06-30T13:08:01.631Z,101350.82
2018-06-30T13:11:03.809Z,101351.90
2018-06-30T13:14:06.244Z,101347.88
2018-06-30T13:17:08.416Z,101340.86
2018-06-30T13:20:10.576Z,101338.51
2018-06-30T13:23:12.823Z,101341.19
2018-06-30T13:26:14.811Z,101330.98
2018-06-30T13:29:16.940Z,101329.02
2018-06-30T13:32:19.014Z,101327.63
2018-06-30T13:35:21.252Z,101321.37
2018-06-30T13:38:23.580Z,101333.12
2018-06-30T13:41:25.614Z,101337.36
2018-06-30T13:44:27.866Z,101331.50
2018-06-30T13:47:29.943Z,101328.27
2018-06-30T13:50:32.113Z,101325.64
2018-06-30T13:53:34.405Z,101329.09
2018-06-30T13:56:36.663Z,101332.30
2018-06-30T13:59:38.787Z,101327.72
2018-06-30T14:02:41.024Z,101331.22
2018-06-30T14:05:43.233Z,101325.51
2018-06-30T14:08:45.299Z,101318.06
2018-06-30T14:11:47.589Z,101318.06
2018-06-30T14:14:50.676Z,101317.80
2018-06-30T14:17:54.596Z,101316.31
2018-06-30T14:20:56.657Z,101313.49
2018-06-30T14:23:58.798Z,101310.89
2018-06-30T14:27:00.890Z,101314.65
2018-06-30T14:30:04.174Z,101317.21
2018-06-30T14:33:07.313Z,101316.15
2018-06-30T14:36:09.638Z,101326.46
2018-06-30T14:39:12.435Z,101330.61
2018-06-30T14:42:14.509Z,101333.93
2018-06-30T14:45:17.650Z,101335.96
2018-06-30T14:48:20.028Z,101335.87
2018-06-30T14:51:22.056Z,101342.05
2018-06-30T14:54:24.315Z,101335.68
2018-06-30T14:57:26.583Z,101334.97
2018-06-30T15:00:28.706Z,101335.83
2018-06-30T15:03:30.843Z,101332.80
2018-06-30T15:06:33.113Z,101339.95
2018-06-30T15:09:35.222Z,101343.30
2018-06-30T15:12:37.524Z,101350.18
2018-06-30T15:15:40.225Z,101352.65
2018-06-30T15:18:42.413Z,101348.98
2018-06-30T15:21:45.493Z,101346.31
2018-06-30T15:24:47.665Z,101354.28
2018-06-30T15:27:49.735Z,101351.28
2018-06-30T15:30:51.733Z,101350.57
2018-06-30T15:33:53.929Z,101351.04
2018-06-30T15:36:56.085Z,101351.84
2018-06-30T15:39:58.112Z,101350.62
2018-06-30T15:43:00.600Z,101348.29
2018-06-30T15:46:03.354Z,101347.67
2018-06-30T15:49:05.427Z,101359.99
2018-06-30T15:52:07.530Z,101351.89
2018-06-30T15:55:09.666Z,101352.90
2018-06-30T15:58:11.865Z,101352.00
2018-06-30T16:01:14.728Z,101351.07
2018-06-30T16:04:17.883Z,101343.29
2018-06-30T16:07:21.039Z,101344.13
2018-06-30T16:10:23.156Z,101342.16
2018-06-30T16:13:25.580Z,101345.86
2018-06-30T16:16:27.942Z,101340.61
2018-06-30T16:19:29.971Z,101344.39
2018-06-30T16:22:32.004Z,101340.36
2018-06-30T16:25:34.374Z,101348.66
2018-06-30T16:28:36.469Z,101346.47
2018-06-30T16:31:38.519Z,101342.12
2018-06-30T16:34:41.015Z,101344.95
2018-06-30T16:37:43.165Z,101340.69
2018-06-30T16:40:45.379Z,101340.71
2018-06-30T16:43:49.136Z,101346.70
2018-06-30T16:46:51.205Z,101344.10
2018-06-30T16:49:53.303Z,101346.24
2018-06-30T16:52:55.485Z,101345.71
2018-06-30T16:55:57.632Z,101346.04
2018-06-30T16:58:59.712Z,101342.41
2018-06-30T17:02:01.723Z,101340.47
2018-06-30T17:05:03.911Z,101346.71
2018-06-30T17:08:09.728Z,101342.66
2018-06-30T17:11:11.877Z,101342.32
2018-06-30T17:14:14.229Z,101346.02
2018-06-30T17:17:16.308Z,101344.57
2018-06-30T17:20:18.530Z,101341.90
2018-06-30T17:23:20.652Z,101342.80
2018-06-30T17:26:22.915Z,101343.97
2018-06-30T17:29:24.939Z,101345.42
2018-06-30T17:32:26.894Z,101344.02
2018-06-30T17:35:29.038Z,101346.50
2018-06-30T17:38:31.189Z,101346.95
2018-06-30T17:41:33.349Z,101343.28
2018-06-30T17:44:36.387Z,101346.62
2018-06-30T17:47:38.491Z,101349.54
2018-06-30T17:50:40.863Z,101342.29
2018-06-30T17:53:43.007Z,101340.45
2018-06-30T17:56:45.042Z,101342.38
2018-06-30T17:59:47.012Z,101352.18
2018-06-30T18:02:49.136Z,101350.33
2018-06-30T18:05:51.283Z,101352.25
2018-06-30T18:08:53.417Z,101353.60
2018-06-30T18:11:56.400Z,101350.29
2018-06-30T18:14:58.480Z,101356.26
2018-06-30T18:18:00.435Z,101359.07
2018-06-30T18:21:02.432Z,101356.60
2018-06-30T18:24:07.659Z,101358.84
2018-06-30T18:27:09.729Z,101360.59
2018-06-30T18:30:11.916Z,101360.67
2018-06-30T18:33:13.955Z,101356.34
2018-06-30T18:36:16.042Z,101366.70
2018-06-30T18:39:18.241Z,101370.23
2018-06-30T18:42:22.352Z,101379.49
2018-06-30T18:45:24.400Z,101377.59
2018-06-30T18:48:26.592Z,101377.96
2018-06-30T18:51:28.597Z,101378.36
2018-06-30T18:54:30.732Z,101382.81
2018-06-30T18:57:32.927Z,101390.96
2018-06-30T19:00:35.199Z,101387.57
2018-06-30T19:03:38.380Z,101390.29
2018-06-30T19:06:40.590Z,101387.65
2018-06-30T19:09:42.695Z,101395.34
2018-06-30T19:12:45.680Z,101390.75
2018-06-30T19:15:47.915Z,101395.72
2018-06-30T19:18:49.994Z,101396.35
2018-06-30T19:21:52.150Z,101396.04
2018-06-30T19:24:54.483Z,101400.95
2018-06-30T19:27:56.704Z,101407.07
2018-06-30T19:30:58.910Z,101412.26
2018-06-30T19:34:01.095Z,101420.00
2018-06-30T19:37:03.353Z,101420.97
2018-06-30T19:40:07.174Z,101426.59
2018-06-30T19:43:09.247Z,101426.27
2018-06-30T19:46:11.401Z,101427.68
2018-06-30T19:49:13.572Z,101438.41
2018-06-30T19:52:15.559Z,101443.75
2018-06-30T19:55:19.222Z,101448.23
2018-06-30T19:58:21.755Z,101444.96
2018-06-30T20:01:23.920Z,101447.69
2018-06-30T20:04:25.868Z,101453.44
2018-06-30T20:07:31.172Z,101451.49
2018-06-30T20:10:34.240Z,101458.14
2018-06-30T20:13:36.521Z,101462.35
2018-06-30T20:16:40.655Z,101459.20
2018-06-30T20:19:42.815Z,101464.83
2018-06-30T20:22:44.925Z,101463.50
2018-06-30T20:25:47.128Z,101466.83
2018-06-30T20:28:49.252Z,101470.41
2018-06-30T20:31:51.408Z,101471.43
2018-06-30T20:34:54.535Z,101483.07
2018-06-30T20:37:56.629Z,101486.25
2018-06-30T20:40:58.799Z,101481.11
2018-06-30T20:44:00.955Z,101485.06
2018-06-30T20:47:02.939Z,101486.98
2018-06-30T20:50:06.006Z,101494.53
2018-06-30T20:53:09.656Z,101494.75
2018-06-30T20:56:11.784Z,101497.13
2018-06-30T20:59:13.858Z,101507.48
2018-06-30T21:02:15.936Z,101505.92
2018-06-30T21:05:17.993Z,101518.18
2018-06-30T21:08:20.213Z,101514.04
2018-06-30T21:11:22.223Z,101512.61
2018-06-30T21:14:24.339Z,101516.65
2018-06-30T21:17:26.392Z,101524.52
2018-06-30T21:20:28.469Z,101530.95
2018-06-30T21:23:30.629Z,101534.30
2018-06-30T21:26:32.714Z,101545.25
2018-06-30T21:29:35.653Z,101551.03
2018-06-30T21:32:37.645Z,101554.87
2018-06-30T21:35:39.847Z,101543.67
2018-06-30T21:38:41.875Z,101551.60
2018-06-30T21:41:43.879Z,101551.92
2018-06-30T21:44:46.028Z,101553.11
2018-06-30T21:47:48.095Z,101555.36
2018-06-30T21:50:50.144Z,101553.30
2018-06-30T21:53:52.157Z,101559.05
2018-06-30T21:56:54.184Z,101562.18
2018-06-30T21:59:56.277Z,101568.86
2018-06-30T22:02:58.374Z,101564.19
2018-06-30T22:06:00.397Z,101568.54
2018-06-30T22:09:06.483Z,101568.13
2018-06-30T22:12:08.447Z,101571.72
2018-06-30T22:15:10.688Z,101569.36
2018-06-30T22:18:15.032Z,101565.73
2018-06-30T22:21:17.097Z,101568.29
2018-06-30T22:24:20.203Z,101572.96
2018-06-30T22:27:22.413Z,101568.18
2018-06-30T22:30:24.540Z,101575.68
2018-06-30T22:33:27.640Z,101571.07
2018-06-30T22:36:29.745Z,101567.64
2018-06-30T22:39:43.345Z,101568.31
2018-06-30T22:42:45.863Z,101565.80
2018-06-30T22:45:47.863Z,101568.84
2018-06-30T22:48:50.255Z,101574.16
2018-06-30T22:51:52.227Z,101569.51
2018-06-30T22:54:55.308Z,101576.29
2018-06-30T22:57:59.464Z,101576.15
2018-06-30T23:01:01.496Z,101572.66
2018-06-30T23:04:04.813Z,101579.24
2018-06-30T23:07:06.904Z,101578.66
2018-06-30T23:10:10.122Z,101577.32
2018-06-30T23:13:12.180Z,101575.00
2018-06-30T23:16:14.315Z,101579.77
2018-06-30T23:19:16.399Z,101572.06
2018-06-30T23:23:25.570Z,101575.35
2018-06-30T23:26:27.694Z,101576.89
2018-06-30T23:29:29.788Z,101584.79
2018-06-30T23:32:31.803Z,101585.30
2018-06-30T23:35:35.077Z,101580.53
2018-06-30T23:38:37.196Z,101582.68
2018-06-30T23:41:39.352Z,101599.69
2018-06-30T23:44:41.547Z,101586.88
2018-06-30T23:47:43.559Z,101591.04
2018-06-30T23:50:45.705Z,101596.40
2018-06-30T23:53:47.704Z,101600.35
2018-06-30T23:56:49.814Z,101594.86
2018-06-30T23:59:51.931Z,101599.88
